Toledo Express Airport
KTOL : now visible

Airfield :











YOU CAN JOIN US ON...

 
LOGIN :

Register | Disclaimer

   EN    FR    IT 

 









Legend :    VFR   Marginal VFR   IFR   Intensive IFR   Very Intensive IFR
Visi :
Ceiling :
>= 8 km
>= 3000ft
5 to 8 km
1000 to 3000 ft
1500m to 5 km
500 to 1000 ft
800 to 1500m
200 to 500 ft
< 800m
< 200 ft
Symbols :   Thunderstorms  Fog  Heavy snow  Heavy precipitations  Wind > 20 kt






- Airport Elevation : 683 ft
- IATA code : TOL


KTOL - Toledo Express

CURRENT METAR :
  • 261152Z 00000KT 9SM MIFG CLR 13/12 A2997 RMK AO2 SLP146 T01330117 10161 20128 51011

EXPIRED METARs :
  • 261056Z 00000KT 9SM MIFG CLR 13/11 A2996 RMK AO2 T01280111
  • 260952Z 00000KT 9SM CLR 14/12 A2995 RMK AO2 SLP139 T01390117
  • 260852Z 00000KT 10SM CLR 15/12 A2994 RMK AO2 SLP133 T01500122 55001

TAF KTOL
Valid from the 26 at 12:00 until the 27 at 12:00 UTC


261120Z 2612/2712 21008KT P6SM SKC
FM261700 21010G20KT P6SM FEW150
FM270600 21010G20KT P6SM OVC150
KZOB FIR / North America



MET'MAP, your aeronautical weather chart ! - Copyright ORBIFLY December 2007 - Disclaimer

ORBIFLY MET'MAP TEAM :

Programming & Development : Alexandra Zaïnal
Concept & original design : Baudouin d'Aumeries
Assistance for programming : Marc-Olivier Méhu
Technical & hardware support : Manuel Goepfert

Contact : metmap@orbifly.com




SOURCES & CREDITS :

   NOAA       Earth
Advisory